Details From YBCG - Gold Coast International
To YMER - Merimbula
Flight Number -
Tags generated
Created
Modified
Stats Distance 604 nm / 1,119 km
Max Altitude 34,000 ft / 10,363 m
Waypoints 7
Social Downloads 0
Likes 0
Share VATSIM

Download

Looking for another format? Having issues loading an existing format? Contact us
Advertisement - Login to hide

Notes

Basic altitude profile: - Ascent Rate: 2500ft/min - Ascent Speed: 250kts - Cruise Altitude: 35000ft - Cruise Speed: 420kts - Descent Rate: 1500ft/min - Descent Speed: 250kts

Route

YBCG WHITI H66 MDG W184 YAS W137 CB YMER

ID Type Via Altitude Latitude Longitude Leg Dist Tot Dist Heading (true) Name
O YBCG APT - 0 ft / 0 m -28.16604˚ 153.50616˚ - 0 nm - Gold Coast International
WHITI FIX - 24,800 ft / 7,559 m -29.17222˚ 152.75444˚ 72 nm 72 nm 213° / 213° -
TW VOR H66 (AWY-HI) 34,000 ft / 10,363 m -31.06620˚ 150.83002˚ 151 nm 223 nm 221° / 222° TAMWORTH VOR-DME
MDG VOR H66 (AWY-HI) 34,000 ft / 10,363 m -32.56093˚ 149.59369˚ 109 nm 333 nm 215° / 215° MUDGEE VOR
YAS NDB W184 (AWY-HI) 28,200 ft / 8,595 m -34.82839˚ 149.04213˚ 138 nm 472 nm 191° / 192° YASS NDB
CB VOR W137 (AWY-HI) 21,100 ft / 6,431 m -35.28139˚ 149.19583˚ 28 nm 500 nm 165° / 164° CANBERRA VOR-DME
O YMER APT - 0 ft / 0 m -36.90688˚ 149.90163˚ 103 nm 604 nm 161° / 160° Merimbula

Altitude Profile

Advertisement - Login to hide

Weather


0- 5 10 15 20 25 30 35+ Temperature / ° C

Clouds and Precipitation
Forecast for 2017-12-13 12:00 UTC. Updated 2 hours ago

Ground ~20,000 ft ~40,000 ft Winds

YBCG

Details ICAO YBCG (OOL)
Name Gold Coast International
Region Australia
Timezone Australia/Brisbane (UTC+10.0)
Stats Elevation 20 ft / 6 m (AMSL)
Location -28.166035° 153.506155°
Runways 2
Magnetic Variation 11.330° E

METAR

YBCG 131300Z AUTO 25006KT 9999 // SCT033 SCT044 20/18 Q1015

Decode

TAF

TAF YBCG 131105Z 1312/1412 09007KT 9999 SCT030 FM131400 23005KT 9999 FEW030 FM132300 03012KT 9999 FEW030 FM140800 02007KT 9999 FEW025

Decode

Departure Runways

ID Width Length Bearing (true) Bearing (mag) Surface Threshold Offset Overrun Length
14 148 ft / 45 m 7,687 ft / 2,343 m 150.04° 138.71° Asphalt 0 ft / 0 m 394 ft / 120 m
17 59 ft / 18 m 1,911 ft / 582 m 184.00° 172.67° Asphalt 0 ft / 0 m 0 ft / 0 m
32 148 ft / 45 m 7,687 ft / 2,343 m 330.04° 318.71° Asphalt 0 ft / 0 m 394 ft / 120 m
35 59 ft / 18 m 1,911 ft / 582 m 4.00° 352.67° Asphalt 0 ft / 0 m 0 ft / 0 m

YMER

Details ICAO YMER (MIM)
Name Merimbula
Region Australia
Timezone Australia/Sydney (UTC+11.0)
Stats Elevation 6 ft / 2 m (AMSL)
Location -36.906875° 149.901626°
Runways 1
Magnetic Variation 13.324° E

METAR

YMER 131300Z AUTO 00000KT 5000 // BKN004 OVC093 18/17 Q1008

Decode

TAF

Not found

Destination Runways

ID Width Length Bearing (true) Bearing (mag) Surface Threshold Offset Overrun Length
03 98 ft / 30 m 5,252 ft / 1,601 m 33.80° 20.48° Asphalt 0 ft / 0 m 0 ft / 0 m
21 98 ft / 30 m 5,252 ft / 1,601 m 213.80° 200.48° Asphalt 0 ft / 0 m 0 ft / 0 m